Time;durP1;ratioP1;P1;durP2;ratioP2;P2;SDS_P1;SDS_P2;PMS_P1;PMS_P2;Temp;Humidity;BMP_temperature;BMP_pressure;BME280_temperature;BME280_humidity;BME280_pressure;Samples;Min_cycle;Max_cycle;Signal;HPM_P1;HPM_P2
2022/04/18 00:00:33;;;;;;;;;;;;;;;8.23;62.41;101607.28;4955639;29;1248;-96
2022/04/18 00:03:03;;;;;;;;;;;;;;;8.22;62.85;101611.00;4939559;29;1256;-96
2022/04/18 00:05:30;;;;;;;;;;;;;;;8.22;62.58;101605.63;4938198;29;4380;-96
2022/04/18 00:07:56;;;;;;;;;;;;;;;8.21;62.28;101612.84;4920384;29;1323;-96
2022/04/18 00:10:23;;;;;;;;;;;;;;;8.21;62.57;101610.16;4948671;29;1163;-96
2022/04/18 00:12:49;;;;;;;;;;;;;;;8.20;62.40;101608.47;4939404;29;1192;-95
2022/04/18 00:15:16;;;;;;;;;;;;;;;8.19;62.34;101609.50;4955371;29;1910;-96
2022/04/18 00:17:43;;;;;;;;;;;;;;;8.17;62.74;101609.66;4938306;29;1661;-96
2022/04/18 00:20:09;;;;;;;;;;;;;;;8.17;62.39;101608.84;4954687;29;2210;-96
2022/04/18 00:22:36;;;;;;;;;;;;;;;8.16;62.55;101607.19;4936061;29;1196;-96
2022/04/18 00:25:02;;;;;;;;;;;;;;;8.16;62.22;101608.00;4920067;29;1424;-96
2022/04/18 00:27:29;;;;;;;;;;;;;;;8.15;62.46;101603.66;4950342;29;1339;-96
2022/04/18 00:29:56;;;;;;;;;;;;;;;8.13;62.44;101608.38;4955062;29;1254;-96
2022/04/18 00:32:22;;;;;;;;;;;;;;;8.13;62.48;101612.91;4938956;29;1320;-96
2022/04/18 00:34:49;;;;;;;;;;;;;;;8.12;62.46;101609.38;4951444;29;1902;-96
2022/04/18 00:37:18;;;;;;;;;;;;;;;8.11;62.60;101601.50;4935844;29;1210;-96
2022/04/18 00:39:45;;;;;;;;;;;;;;;8.11;62.64;101605.00;4946934;29;2540;-96
2022/04/18 00:42:11;;;;;;;;;;;;;;;8.10;62.50;101603.34;4919968;29;1170;-96
2022/04/18 00:44:37;;;;;;;;;;;;;;;8.09;62.39;101600.84;4920112;29;1222;-96
2022/04/18 00:47:04;;;;;;;;;;;;;;;8.09;62.49;101609.75;4919932;29;1322;-96
2022/04/18 00:49:31;;;;;;;;;;;;;;;8.08;62.23;101608.06;4908314;29;1343;-96
2022/04/18 00:51:57;;;;;;;;;;;;;;;8.08;62.59;101599.19;4916959;29;2583;-96
2022/04/18 00:54:24;;;;;;;;;;;;;;;8.07;62.30;101609.06;4919645;29;1911;-96
2022/04/18 00:56:53;;;;;;;;;;;;;;;8.05;62.44;101611.09;4951330;29;1402;-96
2022/04/18 00:59:20;;;;;;;;;;;;;;;8.05;62.41;101605.72;4951273;29;1275;-96
2022/04/18 01:01:46;;;;;;;;;;;;;;;8.06;62.19;101601.19;4919565;29;1325;-96
2022/04/18 01:04:13;;;;;;;;;;;;;;;8.04;62.12;101598.72;4919417;29;1178;-96
2022/04/18 01:06:39;;;;;;;;;;;;;;;8.04;62.24;101597.88;4913777;29;1215;-96
2022/04/18 01:09:06;;;;;;;;;;;;;;;8.03;62.17;101596.19;4919081;29;1298;-96
2022/04/18 01:11:33;;;;;;;;;;;;;;;8.02;62.23;101600.72;4951615;29;1214;-96
2022/04/18 01:14:00;;;;;;;;;;;;;;;8.02;62.17;101600.72;4951164;29;1314;-96
2022/04/18 01:16:26;;;;;;;;;;;;;;;8.02;62.11;101597.22;4950427;28;1911;-96
2022/04/18 01:18:55;;;;;;;;;;;;;;;8.00;61.95;101592.03;4951131;29;1294;-96
2022/04/18 01:21:22;;;;;;;;;;;;;;;8.00;62.37;101592.03;4950796;29;1238;-96
2022/04/18 01:23:49;;;;;;;;;;;;;;;7.99;62.07;101595.72;4950974;29;1292;-96
2022/04/18 01:29:00;;;;;;;;;;;;;;;7.97;62.05;101601.28;4950802;29;1253;-96
2022/04/18 01:31:27;;;;;;;;;;;;;;;7.97;62.27;101593.22;4950919;29;1333;-96
2022/04/18 01:33:54;;;;;;;;;;;;;;;7.97;62.31;101592.34;4941622;29;1280;-96
2022/04/18 01:36:20;;;;;;;;;;;;;;;7.96;61.87;101593.38;4919073;29;1919;-96
2022/04/18 01:38:47;;;;;;;;;;;;;;;7.95;62.08;101581.00;4915698;29;2606;-96
2022/04/18 01:41:13;;;;;;;;;;;;;;;7.95;61.82;101586.34;4906641;29;1204;-96
2022/04/18 01:43:40;;;;;;;;;;;;;;;7.95;61.79;101578.31;4916036;29;1282;-96
2022/04/18 01:46:06;;;;;;;;;;;;;;;7.94;62.08;101572.13;4918402;29;1308;-96
2022/04/18 01:48:33;;;;;;;;;;;;;;;7.93;61.82;101580.31;4918777;29;1260;-96
2022/04/18 01:50:59;;;;;;;;;;;;;;;7.92;62.09;101579.50;4899573;29;1302;-96
2022/04/18 01:53:28;;;;;;;;;;;;;;;7.93;61.69;101578.47;4893435;29;1315;-96
2022/04/18 01:55:54;;;;;;;;;;;;;;;7.91;61.69;101580.53;4931276;29;1910;-96
2022/04/18 01:58:21;;;;;;;;;;;;;;;7.91;62.00;101579.66;4904177;29;2142;-96
2022/04/18 02:00:47;;;;;;;;;;;;;;;7.92;61.75;101581.34;4950142;29;1649;-96
2022/04/18 02:03:14;;;;;;;;;;;;;;;7.90;61.81;101578.00;4950543;29;1251;-96
2022/04/18 02:05:41;;;;;;;;;;;;;;;7.90;61.72;101578.00;4925671;29;1528;-96
2022/04/18 02:08:07;;;;;;;;;;;;;;;7.90;61.76;101578.81;4914974;29;2666;-96
2022/04/18 02:10:34;;;;;;;;;;;;;;;7.89;61.73;101579.84;4917571;29;2111;-96
2022/04/18 02:13:00;;;;;;;;;;;;;;;7.89;61.81;101587.06;4931221;28;1986;-96
2022/04/18 02:15:27;;;;;;;;;;;;;;;7.87;61.69;101576.50;4930294;29;4886;-96
2022/04/18 02:17:53;;;;;;;;;;;;;;;7.85;61.89;101570.50;4914585;29;4471;-96
2022/04/18 02:20:20;;;;;;;;;;;;;;;7.86;61.65;101574.00;4929922;29;1593;-96
2022/04/18 02:22:47;;;;;;;;;;;;;;;7.85;62.01;101573.19;4921773;29;2044;-96
2022/04/18 02:25:13;;;;;;;;;;;;;;;7.85;61.76;101573.19;4934978;29;1428;-96
2022/04/18 02:27:40;;;;;;;;;;;;;;;7.84;61.72;101571.50;4949253;29;1209;-96
2022/04/18 02:30:06;;;;;;;;;;;;;;;7.83;61.79;101569.00;4949516;29;2056;-96
2022/04/18 02:32:48;;;;;;;;;;;;;;;7.82;61.86;101565.47;4936668;29;2070;-96
2022/04/18 02:35:15;;;;;;;;;;;;;;;7.81;61.95;101553.06;4948190;28;1986;-96
2022/04/18 02:37:42;;;;;;;;;;;;;;;7.81;61.81;101557.59;4929764;29;1998;-96
2022/04/18 02:40:09;;;;;;;;;;;;;;;7.80;61.86;101559.47;4912267;29;1988;-96
2022/04/18 02:42:35;;;;;;;;;;;;;;;7.80;61.83;101561.31;4944168;28;2237;-96
2022/04/18 02:45:02;;;;;;;;;;;;;;;7.80;61.75;101558.63;4915104;29;2392;-96
2022/04/18 02:47:28;;;;;;;;;;;;;;;7.80;61.54;101561.31;4914184;29;2520;-96
2022/04/18 02:49:55;;;;;;;;;;;;;;;7.79;61.73;101555.09;4907061;29;1985;-96
2022/04/18 02:52:21;;;;;;;;;;;;;;;7.79;61.50;101555.09;4915104;29;2008;-96
2022/04/18 02:54:48;;;;;;;;;;;;;;;7.77;61.47;101559.81;4949783;29;1309;-96
2022/04/18 02:57:14;;;;;;;;;;;;;;;7.76;61.74;101555.44;4917408;29;1966;-96
2022/04/18 02:59:41;;;;;;;;;;;;;;;7.76;61.80;101558.13;4914199;29;1883;-96
2022/04/18 03:02:08;;;;;;;;;;;;;;;7.76;61.80;101566.16;4942311;28;2311;-96
2022/04/18 03:04:34;;;;;;;;;;;;;;;7.74;61.66;101561.00;4917671;29;2599;-96
2022/04/18 03:07:01;;;;;;;;;;;;;;;7.74;61.45;101563.69;4949984;28;1246;-96
2022/04/18 03:09:28;;;;;;;;;;;;;;;7.74;61.47;101552.13;4947813;29;1293;-96
2022/04/18 03:11:54;;;;;;;;;;;;;;;7.74;61.75;101552.94;4911204;29;2139;-96
2022/04/18 03:14:21;;;;;;;;;;;;;;;7.72;61.45;101552.28;4914578;29;1644;-96
2022/04/18 03:16:48;;;;;;;;;;;;;;;7.71;61.39;101547.13;4903290;29;2033;-96
2022/04/18 03:19:14;;;;;;;;;;;;;;;7.72;61.43;101546.09;4930939;29;1319;-96
2022/04/18 03:21:41;;;;;;;;;;;;;;;7.70;61.41;101540.88;4911328;29;2093;-96
2022/04/18 03:24:08;;;;;;;;;;;;;;;7.70;61.30;101537.38;4930437;29;1294;-96
2022/04/18 03:26:35;;;;;;;;;;;;;;;7.69;61.31;101541.09;4943918;29;1294;-96
2022/04/18 03:29:01;;;;;;;;;;;;;;;7.69;61.29;101531.19;4930631;29;1671;-96
2022/04/18 03:31:28;;;;;;;;;;;;;;;7.68;61.24;101545.63;4936553;29;2024;-96
2022/04/18 03:33:54;;;;;;;;;;;;;;;7.68;61.59;101534.88;4950032;28;1938;-96
2022/04/18 03:41:50;;;;;;;;;;;;;;;7.66;61.26;101530.72;4948161;28;2227;-96
2022/04/18 03:44:17;;;;;;;;;;;;;;;7.66;61.60;101530.72;4919182;29;2180;-96
2022/04/18 03:46:44;;;;;;;;;;;;;;;7.65;61.32;101527.19;4911920;29;2164;-96
2022/04/18 03:49:10;;;;;;;;;;;;;;;7.63;61.30;101531.06;4935311;28;2131;-96
2022/04/18 03:51:37;;;;;;;;;;;;;;;7.63;61.68;101536.44;4950255;28;2252;-96
2022/04/18 03:54:03;;;;;;;;;;;;;;;7.61;61.70;101527.72;4920591;29;1825;-96
2022/04/18 03:56:31;;;;;;;;;;;;;;;7.61;61.68;101530.41;4918363;29;1994;-96
2022/04/18 03:58:57;;;;;;;;;;;;;;;7.58;61.37;101526.22;4920285;29;1208;-96
2022/04/18 04:01:23;;;;;;;;;;;;;;;7.57;61.41;101529.94;4903196;29;2251;-96
2022/04/18 04:03:50;;;;;;;;;;;;;;;7.56;61.73;101527.41;4939583;28;1855;-96
2022/04/18 04:06:16;;;;;;;;;;;;;;;7.55;61.47;101523.91;4944169;29;2646;-96
2022/04/18 04:08:43;;;;;;;;;;;;;;;7.54;61.74;101524.09;4933213;29;1196;-96
2022/04/18 04:11:11;;;;;;;;;;;;;;;7.54;61.63;101524.09;4934959;28;2432;-96
2022/04/18 04:13:37;;;;;;;;;;;;;;;7.54;61.65;101519.56;4933632;29;2629;-96
2022/04/18 04:16:04;;;;;;;;;;;;;;;7.52;61.38;101518.88;4943841;28;2205;-96
2022/04/18 04:18:30;;;;;;;;;;;;;;;7.51;61.62;101519.91;4952288;29;1501;-96
2022/04/18 04:20:57;;;;;;;;;;;;;;;7.50;61.31;101518.25;4904203;29;2065;-96
2022/04/18 04:23:23;;;;;;;;;;;;;;;7.51;61.61;101514.53;4938293;28;1995;-96
2022/04/18 04:25:50;;;;;;;;;;;;;;;7.49;61.70;101506.66;4916619;29;1450;-96
2022/04/18 04:28:16;;;;;;;;;;;;;;;7.50;61.67;101510.22;4913612;29;1953;-96
2022/04/18 04:30:43;;;;;;;;;;;;;;;7.49;61.30;101513.88;4937125;29;2095;-96
2022/04/18 04:33:09;;;;;;;;;;;;;;;7.49;61.27;101511.19;4918668;29;1970;-96
2022/04/18 04:35:36;;;;;;;;;;;;;;;7.47;61.19;101506.03;4951053;29;2227;-96
2022/04/18 04:38:02;;;;;;;;;;;;;;;7.48;61.45;101506.84;4919551;29;1561;-96
2022/04/18 04:40:30;;;;;;;;;;;;;;;7.48;61.46;101512.22;4919844;29;1302;-96
2022/04/18 04:42:56;;;;;;;;;;;;;;;7.46;61.38;101507.00;4919512;29;2148;-96
2022/04/18 04:45:23;;;;;;;;;;;;;;;7.47;61.51;101510.53;4906077;29;2112;-96
2022/04/18 04:47:50;;;;;;;;;;;;;;;7.45;61.51;101509.88;4938696;28;4128;-96
2022/04/18 04:50:16;;;;;;;;;;;;;;;7.45;61.30;101505.34;4930477;29;2747;-96
2022/04/18 04:52:43;;;;;;;;;;;;;;;7.43;61.36;101504.69;4908120;29;2147;-96
2022/04/18 04:55:10;;;;;;;;;;;;;;;7.43;61.53;101502.00;4919625;29;1191;-96
2022/04/18 04:57:37;;;;;;;;;;;;;;;7.43;61.12;101507.38;4951234;29;1985;-96
2022/04/18 05:00:03;;;;;;;;;;;;;;;7.42;61.31;101511.06;4950938;29;1461;-96
2022/04/18 05:02:30;;;;;;;;;;;;;;;7.42;61.18;101512.91;4937132;29;2047;-96
2022/04/18 05:04:56;;;;;;;;;;;;;;;7.41;61.35;101505.88;4941572;29;2084;-96
2022/04/18 05:07:23;;;;;;;;;;;;;;;7.41;61.46;101505.88;4935815;29;1674;-96
2022/04/18 05:09:50;;;;;;;;;;;;;;;7.39;61.44;101508.75;4946286;29;2313;-96
2022/04/18 05:12:16;;;;;;;;;;;;;;;7.39;61.55;101506.06;4909736;29;2588;-96
2022/04/18 05:14:43;;;;;;;;;;;;;;;7.39;61.43;101502.56;4940833;29;2299;-96
2022/04/18 05:17:09;;;;;;;;;;;;;;;7.39;61.32;101502.56;4937320;28;2482;-96
2022/04/18 05:19:36;;;;;;;;;;;;;;;7.38;61.37;101508.91;4935154;29;2052;-96
2022/04/18 05:22:03;;;;;;;;;;;;;;;7.37;61.00;101508.06;4915451;29;1996;-96
2022/04/18 05:24:29;;;;;;;;;;;;;;;7.36;61.45;101508.25;4935869;28;4879;-96
2022/04/18 05:26:56;;;;;;;;;;;;;;;7.36;61.32;101514.47;4950981;29;1359;-96
2022/04/18 05:29:22;;;;;;;;;;;;;;;7.36;61.42;101505.59;4951480;29;1202;-96
2022/04/18 05:31:49;;;;;;;;;;;;;;;7.36;61.44;101508.25;4943711;28;2039;-96
2022/04/18 05:34:15;;;;;;;;;;;;;;;7.35;61.18;101503.91;4909300;29;2314;-96
2022/04/18 05:36:42;;;;;;;;;;;;;;;7.34;60.93;101507.59;4923966;29;1907;-96
2022/04/18 05:39:08;;;;;;;;;;;;;;;7.34;61.44;101499.56;4930162;29;2027;-96
2022/04/18 05:41:35;;;;;;;;;;;;;;;7.33;61.07;101500.56;4939345;29;2280;-96
2022/04/18 05:44:01;;;;;;;;;;;;;;;7.33;61.06;101498.72;4950017;29;2262;-96
2022/04/18 05:46:28;;;;;;;;;;;;;;;7.32;61.03;101494.34;4936858;29;2045;-96
2022/04/18 05:48:55;;;;;;;;;;;;;;;7.32;61.18;101498.88;4937391;29;1291;-96
2022/04/18 05:51:22;;;;;;;;;;;;;;;7.31;61.21;101500.75;4938168;29;1407;-96
2022/04/18 05:53:48;;;;;;;;;;;;;;;7.31;61.35;101492.69;4937703;29;2133;-95
2022/04/18 05:56:15;;;;;;;;;;;;;;;7.31;60.86;101495.38;4935443;29;2117;-95
2022/04/18 05:58:42;;;;;;;;;;;;;;;7.30;60.94;101501.75;4932094;29;2316;-96
2022/04/18 06:01:08;;;;;;;;;;;;;;;7.31;60.98;101502.59;4950719;28;2184;-95
2022/04/18 06:03:35;;;;;;;;;;;;;;;7.28;60.85;101501.09;4923940;29;2908;-95
2022/04/18 06:06:02;;;;;;;;;;;;;;;7.27;61.06;101497.56;4948078;28;2051;-95
2022/04/18 06:08:28;;;;;;;;;;;;;;;7.27;61.20;101499.44;4950844;29;1869;-95
2022/04/18 06:10:55;;;;;;;;;;;;;;;7.27;61.10;101497.56;4954467;29;1308;-96
2022/04/18 06:13:21;;;;;;;;;;;;;;;7.30;61.14;101501.75;4936780;29;2517;-95
2022/04/18 06:15:52;;;;;;;;;;;;;;;7.27;60.80;101497.56;4946474;29;2352;-96
2022/04/18 06:18:18;;;;;;;;;;;;;;;7.26;60.78;101498.59;4921162;29;1347;-96
2022/04/18 06:20:45;;;;;;;;;;;;;;;7.27;60.73;101496.75;4936694;29;2341;-96
2022/04/18 06:23:12;;;;;;;;;;;;;;;7.24;60.80;101500.59;4925698;29;2170;-96
2022/04/18 06:25:38;;;;;;;;;;;;;;;7.25;60.83;101504.13;4944570;29;2343;-96
2022/04/18 06:28:05;;;;;;;;;;;;;;;7.24;60.92;101495.25;4952663;29;1664;-96
2022/04/18 06:30:31;;;;;;;;;;;;;;;7.25;60.84;101498.75;4929803;29;2680;-96
2022/04/18 06:32:58;;;;;;;;;;;;;;;7.24;61.12;101500.59;4928219;29;2147;-96
2022/04/18 06:35:24;;;;;;;;;;;;;;;7.24;61.09;101492.56;4949780;29;1390;-95
2022/04/18 06:37:51;;;;;;;;;;;;;;;7.25;61.02;101501.44;4937833;29;2554;-96
2022/04/18 06:40:18;;;;;;;;;;;;;;;7.24;61.04;101505.97;4903525;29;1930;-95
2022/04/18 06:42:44;;;;;;;;;;;;;;;7.23;61.11;101498.91;4916948;29;2131;-96
2022/04/18 06:45:11;;;;;;;;;;;;;;;7.23;60.66;101496.25;4915906;29;2161;-96
2022/04/18 06:47:37;;;;;;;;;;;;;;;7.22;61.00;101491.06;4905359;29;1468;-96
2022/04/18 06:50:08;;;;;;;;;;;;;;;7.21;60.98;101492.91;4940993;29;2222;-96
2022/04/18 06:52:35;;;;;;;;;;;;;;;7.20;60.83;101493.91;4938595;29;2026;-96
2022/04/18 06:55:01;;;;;;;;;;;;;;;7.20;61.14;101490.41;4949579;29;1328;-96
2022/04/18 06:57:27;;;;;;;;;;;;;;;7.20;61.08;101493.09;4949213;29;1902;-96
2022/04/18 06:59:54;;;;;;;;;;;;;;;7.19;61.09;101489.56;4918153;29;1286;-96
2022/04/18 07:02:21;;;;;;;;;;;;;;;7.18;60.74;101487.09;4903560;29;2263;-95
2022/04/18 07:04:47;;;;;;;;;;;;;;;7.16;60.88;101484.56;4943753;29;2415;-95
2022/04/18 07:07:14;;;;;;;;;;;;;;;7.18;60.72;101492.44;4949297;29;2377;-95
2022/04/18 07:09:40;;;;;;;;;;;;;;;7.16;60.67;101487.25;4931056;29;1618;-96
2022/04/18 07:12:07;;;;;;;;;;;;;;;7.17;60.97;101490.75;4930092;29;2253;-96
2022/04/18 07:14:34;;;;;;;;;;;;;;;7.16;60.65;101489.09;4940458;29;1249;-95
2022/04/18 07:17:00;;;;;;;;;;;;;;;7.16;61.01;101489.09;4917310;29;4997;-96
2022/04/18 07:19:28;;;;;;;;;;;;;;;7.15;60.66;101490.94;4908061;29;1963;-96
2022/04/18 07:21:55;;;;;;;;;;;;;;;7.14;60.71;101497.28;4921398;29;1352;-96
2022/04/18 07:24:22;;;;;;;;;;;;;;;7.14;60.74;101502.66;4920930;29;1343;-96
2022/04/18 07:26:49;;;;;;;;;;;;;;;7.13;60.77;101498.31;4921290;29;1254;-96
2022/04/18 07:29:15;;;;;;;;;;;;;;;7.13;60.68;101495.63;4920408;29;2194;-96
2022/04/18 07:31:42;;;;;;;;;;;;;;;7.14;61.06;101507.19;4945307;29;2285;-96
2022/04/18 07:34:08;;;;;;;;;;;;;;;7.12;61.01;101502.00;4927315;29;1948;-96
2022/04/18 07:36:35;;;;;;;;;;;;;;;7.12;60.99;101496.66;4920819;29;1903;-96
2022/04/18 07:39:01;;;;;;;;;;;;;;;7.11;60.98;101503.00;4938516;29;1694;-96
2022/04/18 07:41:28;;;;;;;;;;;;;;;7.11;60.61;101491.44;4938807;29;2078;-96
2022/04/18 07:43:54;;;;;;;;;;;;;;;7.12;60.63;101495.78;4939441;29;2078;-96
2022/04/18 07:46:21;;;;;;;;;;;;;;;7.12;60.83;101495.78;4937308;29;2919;-96
2022/04/18 07:48:47;;;;;;;;;;;;;;;7.09;60.96;101497.00;4947686;29;1730;-95
2022/04/18 07:53:58;;;;;;;;;;;;;;;7.10;60.50;101495.16;4925520;29;1970;-96
2022/04/18 07:56:25;;;;;;;;;;;;;;;7.09;60.98;101497.00;4946877;29;1973;-95
2022/04/18 07:58:52;;;;;;;;;;;;;;;7.10;60.93;101498.66;4955021;29;2090;-96
2022/04/18 08:01:18;;;;;;;;;;;;;;;7.10;60.81;101487.13;4955268;29;1901;-96
2022/04/18 08:03:45;;;;;;;;;;;;;;;7.09;60.60;101490.78;4937758;29;1335;-96
2022/04/18 08:06:11;;;;;;;;;;;;;;;7.09;60.92;101485.44;4933496;29;1696;-96
2022/04/18 08:08:38;;;;;;;;;;;;;;;7.08;60.62;101495.31;4939865;29;1194;-96
2022/04/18 08:11:04;;;;;;;;;;;;;;;7.08;60.46;101486.44;4954012;29;2138;-96
2022/04/18 08:13:31;;;;;;;;;;;;;;;7.07;60.80;101488.28;4939334;29;1214;-96
2022/04/18 08:15:57;;;;;;;;;;;;;;;7.08;60.73;101484.59;4948035;29;2180;-96
2022/04/18 08:18:25;;;;;;;;;;;;;;;7.10;60.52;101481.75;4920465;29;1984;-96
2022/04/18 08:20:52;;;;;;;;;;;;;;;7.08;60.70;101489.94;4935203;29;2035;-96
2022/04/18 08:23:19;;;;;;;;;;;;;;;7.07;60.87;101485.63;4955705;29;1227;-96
2022/04/18 08:25:45;;;;;;;;;;;;;;;7.08;60.50;101481.91;4953929;28;2022;-96
2022/04/18 08:28:20;;;;;;;;;;;;;;;7.09;60.41;101480.06;4953105;29;1836;-96
2022/04/18 08:30:46;;;;;;;;;;;;;;;7.08;60.44;101486.44;4931160;29;2222;-96
2022/04/18 08:33:13;;;;;;;;;;;;;;;7.08;60.74;101481.09;4959399;29;1376;-96
2022/04/18 08:35:40;;;;;;;;;;;;;;;7.07;60.66;101469.53;4947721;29;1406;-96
2022/04/18 08:38:06;;;;;;;;;;;;;;;7.08;60.63;101471.19;4936226;29;2070;-96
2022/04/18 08:40:33;;;;;;;;;;;;;;;7.07;60.50;101472.22;4920442;29;1290;-96
2022/04/18 08:42:59;;;;;;;;;;;;;;;7.07;60.68;101466.88;4939052;29;1185;-96
2022/04/18 08:45:26;;;;;;;;;;;;;;;7.08;60.38;101467.69;4931430;29;1992;-96
2022/04/18 08:53:22;;;;;;;;;;;;;;;7.08;60.43;101471.19;4919946;29;1245;-96
2022/04/18 08:55:49;;;;;;;;;;;;;;;7.07;60.34;101477.56;4922727;29;1341;-96
2022/04/18 08:58:16;;;;;;;;;;;;;;;7.07;60.47;101471.38;4939552;29;1903;-96
2022/04/18 09:00:45;;;;;;;;;;;;;;;7.08;60.18;101460.47;4928868;29;2143;-96
2022/04/18 09:03:12;;;;;;;;;;;;;;;7.07;60.70;101456.16;4919639;29;1329;-96
2022/04/18 09:05:39;;;;;;;;;;;;;;;7.07;60.28;101455.31;4929526;29;1581;-96
2022/04/18 09:08:06;;;;;;;;;;;;;;;7.09;60.65;101458.63;4922706;29;1188;-96
2022/04/18 09:10:32;;;;;;;;;;;;;;;7.08;60.45;101454.28;4935200;29;2084;-96
2022/04/18 09:12:59;;;;;;;;;;;;;;;7.06;60.71;101446.44;4931270;29;1259;-96
2022/04/18 09:15:26;;;;;;;;;;;;;;;7.08;60.57;101446.25;4928330;29;2266;-96
2022/04/18 09:17:53;;;;;;;;;;;;;;;7.07;60.30;101444.59;4932273;29;2320;-96
2022/04/18 09:20:20;;;;;;;;;;;;;;;7.08;60.50;101438.22;4916442;29;4747;-96
2022/04/18 09:22:47;;;;;;;;;;;;;;;7.08;60.40;101433.69;4955616;28;2293;-96
2022/04/18 09:25:15;;;;;;;;;;;;;;;7.09;60.39;101438.06;4954908;29;1201;-96
2022/04/18 09:27:41;;;;;;;;;;;;;;;7.10;60.45;101426.34;4919310;29;1410;-96
2022/04/18 09:30:08;;;;;;;;;;;;;;;7.09;60.19;101427.34;4926384;29;1606;-96
2022/04/18 09:32:35;;;;;;;;;;;;;;;7.10;60.46;101420.97;4923542;29;2617;-96
2022/04/18 09:35:01;;;;;;;;;;;;;;;7.10;60.34;101425.50;4937255;29;1413;-96
2022/04/18 09:37:28;;;;;;;;;;;;;;;7.11;60.51;101419.13;4934697;29;1906;-96
2022/04/18 09:39:54;;;;;;;;;;;;;;;7.12;60.18;101420.78;4929667;29;1621;-96
2022/04/18 09:42:21;;;;;;;;;;;;;;;7.12;60.23;101418.97;4937693;29;1216;-96
2022/04/18 09:44:47;;;;;;;;;;;;;;;7.12;60.64;101415.41;4930553;29;2071;-96
2022/04/18 09:47:14;;;;;;;;;;;;;;;7.12;60.22;101416.28;4925488;29;4238;-96
2022/04/18 09:49:41;;;;;;;;;;;;;;;7.13;60.67;101417.09;4940117;28;2335;-96
2022/04/18 09:52:09;;;;;;;;;;;;;;;7.14;60.60;101408.06;4937141;29;1762;-96
2022/04/18 09:54:35;;;;;;;;;;;;;;;7.13;60.46;101407.22;4932418;29;1162;-96
2022/04/18 09:57:02;;;;;;;;;;;;;;;7.14;60.28;101398.16;4943148;29;2017;-95
2022/04/18 09:59:28;;;;;;;;;;;;;;;7.14;60.36;101400.00;4930700;29;2127;-96
2022/04/18 10:01:55;;;;;;;;;;;;;;;7.15;60.30;101401.72;4925382;29;2280;-96
2022/04/18 10:04:21;;;;;;;;;;;;;;;7.15;60.27;101391.81;4923962;29;2371;-96
2022/04/18 10:06:50;;;;;;;;;;;;;;;7.15;60.72;101385.63;4932666;29;2083;-96
2022/04/18 10:09:17;;;;;;;;;;;;;;;7.15;60.58;101388.31;4937559;29;1303;-96
2022/04/18 10:11:44;;;;;;;;;;;;;;;7.14;60.78;101384.78;4953323;29;2051;-96
2022/04/18 10:14:11;;;;;;;;;;;;;;;7.14;60.41;101390.13;4934002;29;1183;-96
2022/04/18 10:16:37;;;;;;;;;;;;;;;7.15;60.71;101393.66;4928158;29;3034;-96
2022/04/18 10:19:04;;;;;;;;;;;;;;;7.14;60.77;101390.13;4934606;29;2615;-96
2022/04/18 10:21:31;;;;;;;;;;;;;;;7.14;60.79;101390.13;4929356;29;1765;-96
2022/04/18 10:23:58;;;;;;;;;;;;;;;7.17;60.75;101383.59;4953699;29;1437;-96
2022/04/18 10:26:24;;;;;;;;;;;;;;;7.15;60.78;101378.41;4932990;29;1415;-96
2022/04/18 10:28:51;;;;;;;;;;;;;;;7.15;60.62;101370.38;4932358;29;2096;-96
2022/04/18 10:31:18;;;;;;;;;;;;;;;7.16;60.55;101377.41;4934689;29;1346;-96
2022/04/18 10:33:58;;;;;;;;;;;;;;;;;;;;;
2022/04/18 10:36:25;;;;;;;;;;;;;;;7.16;61.03;101372.03;4947470;29;1923;-96
2022/04/18 10:38:53;;;;;;;;;;;;;;;7.17;61.10;101373.69;4953335;29;2094;-96
2022/04/18 10:41:20;;;;;;;;;;;;;;;7.18;61.14;101369.19;4946330;29;1825;-96
2022/04/18 10:46:37;;;;;;;;;;;;;;;7.18;61.07;101359.31;4974020;28;2527;-96
2022/04/18 10:49:17;;;;;;;;;;;;;;;7.19;60.78;101355.59;4974073;28;1461;-96
2022/04/18 10:52:00;;;;;;;;;;;;;;;7.20;60.83;101359.94;4948008;29;1154;-96
2022/04/18 10:54:30;;;;;;;;;;;;;;;7.22;60.87;101359.78;4968878;29;1299;-96
2022/04/18 10:56:57;;;;;;;;;;;;;;;7.24;60.92;101355.91;4965469;29;1620;-96
2022/04/18 10:59:25;;;;;;;;;;;;;;;7.23;61.18;101346.19;4964144;29;1211;-96
2022/04/18 11:01:51;;;;;;;;;;;;;;;7.24;61.32;101352.41;4959758;29;2301;-96
2022/04/18 11:04:18;;;;;;;;;;;;;;;7.25;60.93;101351.38;4958832;29;4522;-96
2022/04/18 11:06:44;;;;;;;;;;;;;;;7.25;60.89;101349.53;4947245;29;2559;-96
2022/04/18 11:09:11;;;;;;;;;;;;;;;7.27;61.38;101346.69;4940990;29;1204;-96
2022/04/18 11:11:37;;;;;;;;;;;;;;;7.29;61.01;101347.31;4947048;29;2073;-96
2022/04/18 11:14:04;;;;;;;;;;;;;;;7.30;61.47;101346.34;4952306;29;1226;-96
2022/04/18 11:16:32;;;;;;;;;;;;;;;7.30;61.26;101350.88;4954042;29;1696;-96
2022/04/18 11:18:59;;;;;;;;;;;;;;;7.32;61.15;101341.59;4957733;28;1978;-96
2022/04/18 11:21:25;;;;;;;;;;;;;;;7.33;61.21;101348.66;4945793;29;1201;-96
2022/04/18 11:23:52;;;;;;;;;;;;;;;7.34;61.56;101344.94;4964380;29;1622;-96
2022/04/18 11:26:18;;;;;;;;;;;;;;;7.37;61.25;101349.13;4963769;29;1246;-96
2022/04/18 11:28:45;;;;;;;;;;;;;;;7.35;61.63;101346.59;4963012;29;1349;-96
2022/04/18 11:31:12;;;;;;;;;;;;;;;7.37;61.35;101343.75;4974303;28;1544;-96
2022/04/18 11:33:38;;;;;;;;;;;;;;;7.38;61.24;101332.03;4958234;29;1575;-96
2022/04/18 11:36:05;;;;;;;;;;;;;;;7.38;61.78;101340.91;4964127;29;2453;-96
2022/04/18 11:38:31;;;;;;;;;;;;;;;7.41;61.59;101337.03;4965201;29;2672;-96
2022/04/18 11:40:58;;;;;;;;;;;;;;;7.42;61.46;101330.66;4949972;29;1555;-96
2022/04/18 11:43:25;;;;;;;;;;;;;;;7.43;61.73;101325.13;4951813;28;1389;-96
2022/04/18 11:45:53;;;;;;;;;;;;;;;7.45;61.66;101324.94;4985708;28;1531;-96
2022/04/18 11:48:19;;;;;;;;;;;;;;;7.47;61.89;101321.06;4980326;28;2192;-96
2022/04/18 11:50:46;;;;;;;;;;;;;;;7.47;61.46;101323.75;4980922;28;1484;-96
2022/04/18 11:53:13;;;;;;;;;;;;;;;7.45;61.83;101317.72;4976766;28;1236;-96
2022/04/18 11:55:41;;;;;;;;;;;;;;;7.45;61.71;101320.41;4976429;28;1193;-96
2022/04/18 11:58:08;;;;;;;;;;;;;;;7.49;61.86;101318.19;4975819;28;1907;-96
2022/04/18 12:08:48;;;;;;;;;;;;;;;7.53;61.73;101311.47;4976143;28;1205;-96
2022/04/18 12:11:14;;;;;;;;;;;;;;;7.54;62.00;101307.78;4977639;28;1326;-96
2022/04/18 12:13:42;;;;;;;;;;;;;;;7.56;61.74;101305.75;4975522;28;1377;-96
2022/04/18 12:16:08;;;;;;;;;;;;;;;7.56;62.07;101296.84;4980164;28;2140;-96
2022/04/18 12:18:35;;;;;;;;;;;;;;;7.55;61.96;101297.88;4971661;28;2873;-96
2022/04/18 12:21:02;;;;;;;;;;;;;;;7.59;62.10;101293.81;4977828;28;1185;-96
2022/04/18 12:23:28;;;;;;;;;;;;;;;7.62;61.93;101302.34;4985068;28;1781;-96
2022/04/18 12:25:55;;;;;;;;;;;;;;;7.60;61.86;101299.00;4959817;29;1190;-96
2022/04/18 12:28:23;;;;;;;;;;;;;;;7.63;62.20;101304.00;4952619;29;1368;-96
2022/04/18 12:30:49;;;;;;;;;;;;;;;7.66;62.38;101294.75;4973467;28;1534;-96
2022/04/18 12:33:19;;;;;;;;;;;;;;;7.64;62.22;101284.22;4984677;28;1816;-96
2022/04/18 12:35:48;;;;;;;;;;;;;;;7.63;62.26;101289.75;4973904;28;2496;-96
2022/04/18 12:38:16;;;;;;;;;;;;;;;7.67;62.56;101280.34;4970749;29;1910;-96
2022/04/18 12:40:46;;;;;;;;;;;;;;;7.71;62.41;101279.78;4970546;28;1539;-96
2022/04/18 12:43:22;;;;;;;;;;;;;;;7.76;62.45;101273.03;4974140;29;1947;-96
2022/04/18 12:46:14;;;;;;;;;;;;;;;7.78;62.33;101273.69;4981606;28;1819;-96
2022/04/18 12:49:08;;;;;;;;;;;;;;;7.79;62.52;101272.66;4970475;28;769;-96
2022/04/18 12:51:43;;;;;;;;;;;;;;;7.83;62.18;101274.81;4990031;28;1335;-96
2022/04/18 12:54:10;;;;;;;;;;;;;;;7.85;62.16;101267.44;4986766;28;1238;-96
2022/04/18 12:56:38;;;;;;;;;;;;;;;7.88;62.17;101268.88;4991585;28;1229;-96
2022/04/18 12:59:06;;;;;;;;;;;;;;;7.89;62.19;101265.19;4990653;28;1960;-96
2022/04/18 13:01:34;;;;;;;;;;;;;;;7.90;62.52;101264.19;4975121;28;1883;-97
2022/04/18 13:04:03;;;;;;;;;;;;;;;7.90;62.59;101267.69;4976734;28;1309;-96
2022/04/18 13:06:33;;;;;;;;;;;;;;;7.92;62.33;101267.50;4976116;28;1359;-96
2022/04/18 13:09:00;;;;;;;;;;;;;;;7.95;62.68;101259.09;4975691;28;1250;-96
2022/04/18 13:11:28;;;;;;;;;;;;;;;7.96;62.48;101256.22;4974599;28;1322;-96
2022/04/18 13:13:55;;;;;;;;;;;;;;;8.01;62.76;101257.53;4975900;28;1240;-96
2022/04/18 13:16:23;;;;;;;;;;;;;;;8.03;62.41;101253.63;4974309;28;1318;-96
2022/04/18 13:18:52;;;;;;;;;;;;;;;8.04;62.54;101244.56;4973970;28;1964;-96
2022/04/18 13:21:20;;;;;;;;;;;;;;;8.07;62.65;101251.41;4974129;28;1267;-96
2022/04/18 13:23:48;;;;;;;;;;;;;;;8.09;62.41;101244.00;4974394;28;1334;-96